Airfield :
LOGIN :

Register | Disclaimer

   EN    FR    IT 

 










Legend :    VFR   Marginal VFR   IFR   Intensive IFR   Very Intensive IFR
Visi :
Ceiling :
>= 8 km
>= 3000ft
5 to 8 km
1000 to 3000 ft
1500m to 5 km
500 to 1000 ft
800 to 1500m
200 to 500 ft
< 800m
< 200 ft
Symbols :   Thunderstorms  Fog  Heavy snow  Heavy precipitations  Wind > 20 kt
SIGMETs :     Misc.  Thunderstorms  Icing  Turbulence  Mountain Waves  Volcanic Ashes






- Airport Elevation : 53 ft
- IATA code : HAM


EDDH - Hamburg

CURRENT METAR :
  • 110450Z 13009KT 110V170 4400 -RA BKN005 07/06 Q1006 RERA TEMPO 2500 RA BKN004

EXPIRED METARs :
  • 110420Z 12010KT 4800 RA BKN005 07/06 Q1006 TEMPO 2500 BKN004
  • 110350Z 11009KT 6000 -RA BKN005 06/06 Q1007 TEMPO 2500 BKN004
  • 110320Z 11010KT 5000 -RA BKN006 06/06 Q1007 RERA TEMPO 2500 BKN004
  • 110250Z 11010KT 090V150 4500 RA BKN006 06/05 Q1007 TEMPO 2500 BKN004
  • 110220Z 11010KT 4500 -RA BKN006 06/05 Q1008 TEMPO 2500
  • 110150Z 10010KT 4500 -RADZ BKN006 05/05 Q1008 TEMPO 2500

TAF AMD TAF EDDH
Valid from the 11 at 00:00 until the 12 at 06:00 UTC


110043Z 1100/1206 07010KT 7000 SCT006 BKN013
TEMPO 1100/1103 2500 RA BKN006
BECMG 1103/1107 15005KT 1500 -RADZ BR BKN003
TEMPO 1103/1107 RA
BECMG 1108/1111 24010KT 9999 SCT008 BKN015
BECMG 1111/1115 30012KT
TEMPO 1111/1121 4000 -RADZ BKN008
PROB30
TEMPO 1114/1117 RA
BECMG 1117/1120 28007KT
PROB30
TEMPO 1121/1124 2500 -RASN BKN007



MET'MAP, your aeronautical weather chart ! - Copyright ORBIFLY December 2007 - Disclaimer

ORBIFLY MET'MAP TEAM :

Programming & Development : Alexandra Zaïnal
Concept & original design : Baudouin d'Aumeries
Assistance for programming : Marc-Olivier Méhu
Technical & hardware support : Manuel Goepfert

Contact : metmap@orbifly.com




SOURCES & CREDITS :

   NOAA